sensor_id;sensor_type;location;lat;lon;timestamp;P1;durP1;ratioP1;P2;durP2;ratioP2
75645;SDS011;64237;52.438;13.240;2023-05-07T00:00:15;13.23;;;6.67;;
75645;SDS011;64237;52.438;13.240;2023-05-07T00:02:46;14.30;;;6.47;;
75645;SDS011;64237;52.438;13.240;2023-05-07T00:05:14;12.23;;;6.28;;
75645;SDS011;64237;52.438;13.240;2023-05-07T00:07:40;14.82;;;7.45;;
75645;SDS011;64237;52.438;13.240;2023-05-07T00:10:09;12.07;;;6.93;;
75645;SDS011;64237;52.438;13.240;2023-05-07T00:12:35;13.48;;;6.95;;
75645;SDS011;64237;52.438;13.240;2023-05-07T00:15:02;12.57;;;6.23;;
75645;SDS011;64237;52.438;13.240;2023-05-07T00:17:28;13.82;;;6.63;;
75645;SDS011;64237;52.438;13.240;2023-05-07T00:19:54;14.35;;;7.03;;
75645;SDS011;64237;52.438;13.240;2023-05-07T00:22:19;11.77;;;6.10;;
75645;SDS011;64237;52.438;13.240;2023-05-07T00:24:44;15.03;;;6.70;;
75645;SDS011;64237;52.438;13.240;2023-05-07T00:27:10;14.27;;;7.13;;
75645;SDS011;64237;52.438;13.240;2023-05-07T00:29:35;15.57;;;6.90;;
75645;SDS011;64237;52.438;13.240;2023-05-07T00:32:01;12.75;;;6.53;;
75645;SDS011;64237;52.438;13.240;2023-05-07T00:34:27;15.27;;;6.68;;
75645;SDS011;64237;52.438;13.240;2023-05-07T00:36:52;13.40;;;6.67;;
75645;SDS011;64237;52.438;13.240;2023-05-07T00:39:18;12.90;;;6.38;;
75645;SDS011;64237;52.438;13.240;2023-05-07T00:41:46;12.45;;;6.18;;
75645;SDS011;64237;52.438;13.240;2023-05-07T00:44:15;13.35;;;6.28;;
75645;SDS011;64237;52.438;13.240;2023-05-07T00:46:43;12.85;;;6.07;;
75645;SDS011;64237;52.438;13.240;2023-05-07T00:49:16;11.50;;;6.10;;
75645;SDS011;64237;52.438;13.240;2023-05-07T00:51:41;14.23;;;6.53;;
75645;SDS011;64237;52.438;13.240;2023-05-07T00:54:07;11.40;;;6.13;;
75645;SDS011;64237;52.438;13.240;2023-05-07T00:56:33;12.38;;;6.05;;
75645;SDS011;64237;52.438;13.240;2023-05-07T00:59:00;12.68;;;5.85;;
75645;SDS011;64237;52.438;13.240;2023-05-07T01:01:29;11.65;;;5.65;;
75645;SDS011;64237;52.438;13.240;2023-05-07T01:03:56;15.95;;;5.93;;
75645;SDS011;64237;52.438;13.240;2023-05-07T01:06:22;10.63;;;5.50;;
75645;SDS011;64237;52.438;13.240;2023-05-07T01:08:49;11.57;;;5.38;;
75645;SDS011;64237;52.438;13.240;2023-05-07T01:11:17;11.55;;;5.63;;
75645;SDS011;64237;52.438;13.240;2023-05-07T01:13:45;13.98;;;5.75;;
75645;SDS011;64237;52.438;13.240;2023-05-07T01:16:17;13.65;;;5.57;;
75645;SDS011;64237;52.438;13.240;2023-05-07T01:18:42;12.05;;;5.63;;
75645;SDS011;64237;52.438;13.240;2023-05-07T01:21:14;11.45;;;5.18;;
75645;SDS011;64237;52.438;13.240;2023-05-07T01:23:41;11.30;;;4.75;;
75645;SDS011;64237;52.438;13.240;2023-05-07T01:26:07;9.48;;;4.68;;
75645;SDS011;64237;52.438;13.240;2023-05-07T01:28:32;9.43;;;4.72;;
75645;SDS011;64237;52.438;13.240;2023-05-07T01:31:04;12.40;;;5.35;;
75645;SDS011;64237;52.438;13.240;2023-05-07T01:33:31;8.32;;;4.30;;
75645;SDS011;64237;52.438;13.240;2023-05-07T01:36:00;9.60;;;4.50;;
75645;SDS011;64237;52.438;13.240;2023-05-07T01:38:27;10.90;;;4.32;;
75645;SDS011;64237;52.438;13.240;2023-05-07T01:40:56;8.52;;;4.18;;
75645;SDS011;64237;52.438;13.240;2023-05-07T01:43:22;10.88;;;4.60;;
75645;SDS011;64237;52.438;13.240;2023-05-07T01:45:48;8.00;;;4.30;;
75645;SDS011;64237;52.438;13.240;2023-05-07T01:48:14;13.40;;;4.22;;
75645;SDS011;64237;52.438;13.240;2023-05-07T01:50:41;11.38;;;4.82;;
75645;SDS011;64237;52.438;13.240;2023-05-07T01:53:07;10.43;;;4.50;;
75645;SDS011;64237;52.438;13.240;2023-05-07T01:55:33;9.60;;;4.25;;
75645;SDS011;64237;52.438;13.240;2023-05-07T01:58:04;10.02;;;4.72;;
75645;SDS011;64237;52.438;13.240;2023-05-07T02:00:35;9.38;;;4.88;;
75645;SDS011;64237;52.438;13.240;2023-05-07T02:03:01;11.02;;;4.70;;
75645;SDS011;64237;52.438;13.240;2023-05-07T02:05:26;10.05;;;5.20;;
75645;SDS011;64237;52.438;13.240;2023-05-07T02:07:51;8.93;;;4.80;;
75645;SDS011;64237;52.438;13.240;2023-05-07T02:10:17;11.97;;;5.67;;
75645;SDS011;64237;52.438;13.240;2023-05-07T02:12:42;12.20;;;5.53;;
75645;SDS011;64237;52.438;13.240;2023-05-07T02:15:13;12.40;;;5.60;;
75645;SDS011;64237;52.438;13.240;2023-05-07T02:17:57;11.18;;;5.35;;
75645;SDS011;64237;52.438;13.240;2023-05-07T02:20:27;12.80;;;5.40;;
75645;SDS011;64237;52.438;13.240;2023-05-07T02:22:56;12.55;;;5.65;;
75645;SDS011;64237;52.438;13.240;2023-05-07T02:25:21;10.85;;;5.85;;
75645;SDS011;64237;52.438;13.240;2023-05-07T02:27:46;9.50;;;4.50;;
75645;SDS011;64237;52.438;13.240;2023-05-07T02:30:13;9.45;;;5.25;;
75645;SDS011;64237;52.438;13.240;2023-05-07T02:32:39;10.68;;;5.70;;
75645;SDS011;64237;52.438;13.240;2023-05-07T02:35:04;10.73;;;4.90;;
75645;SDS011;64237;52.438;13.240;2023-05-07T02:37:30;11.05;;;5.50;;
75645;SDS011;64237;52.438;13.240;2023-05-07T02:39:55;11.90;;;5.63;;
75645;SDS011;64237;52.438;13.240;2023-05-07T02:42:21;10.57;;;5.40;;
75645;SDS011;64237;52.438;13.240;2023-05-07T02:44:46;11.23;;;5.22;;
75645;SDS011;64237;52.438;13.240;2023-05-07T02:47:12;10.38;;;5.43;;
75645;SDS011;64237;52.438;13.240;2023-05-07T02:49:39;12.40;;;5.75;;
75645;SDS011;64237;52.438;13.240;2023-05-07T02:52:04;9.07;;;4.97;;
75645;SDS011;64237;52.438;13.240;2023-05-07T02:54:30;12.95;;;5.57;;
75645;SDS011;64237;52.438;13.240;2023-05-07T02:56:55;10.00;;;5.43;;
75645;SDS011;64237;52.438;13.240;2023-05-07T02:59:21;10.15;;;5.22;;
75645;SDS011;64237;52.438;13.240;2023-05-07T03:01:46;12.45;;;5.35;;
75645;SDS011;64237;52.438;13.240;2023-05-07T03:04:13;10.02;;;4.88;;
75645;SDS011;64237;52.438;13.240;2023-05-07T03:06:41;10.30;;;4.93;;
75645;SDS011;64237;52.438;13.240;2023-05-07T03:09:07;9.65;;;4.90;;
75645;SDS011;64237;52.438;13.240;2023-05-07T03:11:32;11.00;;;5.43;;
75645;SDS011;64237;52.438;13.240;2023-05-07T03:14:01;10.48;;;5.10;;
75645;SDS011;64237;52.438;13.240;2023-05-07T03:16:26;12.80;;;5.22;;
75645;SDS011;64237;52.438;13.240;2023-05-07T03:18:52;10.98;;;4.70;;
75645;SDS011;64237;52.438;13.240;2023-05-07T03:21:23;9.77;;;4.97;;
75645;SDS011;64237;52.438;13.240;2023-05-07T03:23:49;9.85;;;5.00;;
75645;SDS011;64237;52.438;13.240;2023-05-07T03:26:14;11.45;;;4.63;;
75645;SDS011;64237;52.438;13.240;2023-05-07T03:28:40;10.20;;;5.07;;
75645;SDS011;64237;52.438;13.240;2023-05-07T03:31:05;10.82;;;5.05;;
75645;SDS011;64237;52.438;13.240;2023-05-07T03:33:33;12.20;;;5.07;;
75645;SDS011;64237;52.438;13.240;2023-05-07T03:35:59;12.45;;;4.97;;
75645;SDS011;64237;52.438;13.240;2023-05-07T03:38:24;10.23;;;4.60;;
75645;SDS011;64237;52.438;13.240;2023-05-07T03:40:50;10.48;;;4.45;;
75645;SDS011;64237;52.438;13.240;2023-05-07T03:43:16;14.15;;;5.13;;
75645;SDS011;64237;52.438;13.240;2023-05-07T03:45:41;9.88;;;5.13;;
75645;SDS011;64237;52.438;13.240;2023-05-07T03:48:07;10.57;;;5.10;;
75645;SDS011;64237;52.438;13.240;2023-05-07T03:50:32;9.75;;;5.03;;
75645;SDS011;64237;52.438;13.240;2023-05-07T03:52:57;10.65;;;5.15;;
75645;SDS011;64237;52.438;13.240;2023-05-07T03:55:23;11.03;;;5.20;;
75645;SDS011;64237;52.438;13.240;2023-05-07T03:57:48;11.48;;;5.32;;
75645;SDS011;64237;52.438;13.240;2023-05-07T04:00:13;10.60;;;5.13;;
75645;SDS011;64237;52.438;13.240;2023-05-07T04:02:39;10.45;;;4.97;;
75645;SDS011;64237;52.438;13.240;2023-05-07T04:05:04;10.60;;;5.05;;
75645;SDS011;64237;52.438;13.240;2023-05-07T04:07:30;11.23;;;5.53;;
75645;SDS011;64237;52.438;13.240;2023-05-07T04:09:55;10.70;;;5.03;;
75645;SDS011;64237;52.438;13.240;2023-05-07T04:12:20;10.23;;;4.80;;
75645;SDS011;64237;52.438;13.240;2023-05-07T04:14:46;9.48;;;4.50;;
75645;SDS011;64237;52.438;13.240;2023-05-07T04:17:11;10.93;;;5.43;;
75645;SDS011;64237;52.438;13.240;2023-05-07T04:19:37;9.25;;;5.20;;
75645;SDS011;64237;52.438;13.240;2023-05-07T04:22:02;11.93;;;5.32;;
75645;SDS011;64237;52.438;13.240;2023-05-07T04:24:28;10.45;;;4.97;;
75645;SDS011;64237;52.438;13.240;2023-05-07T04:29:23;11.75;;;5.47;;
75645;SDS011;64237;52.438;13.240;2023-05-07T04:31:49;11.32;;;5.28;;
75645;SDS011;64237;52.438;13.240;2023-05-07T04:34:14;11.25;;;5.55;;
75645;SDS011;64237;52.438;13.240;2023-05-07T04:36:40;12.05;;;5.45;;
75645;SDS011;64237;52.438;13.240;2023-05-07T04:39:05;10.63;;;5.32;;
75645;SDS011;64237;52.438;13.240;2023-05-07T04:41:31;11.52;;;5.53;;
75645;SDS011;64237;52.438;13.240;2023-05-07T04:43:57;10.10;;;5.20;;
75645;SDS011;64237;52.438;13.240;2023-05-07T04:46:23;11.45;;;5.85;;
75645;SDS011;64237;52.438;13.240;2023-05-07T04:48:51;11.20;;;5.35;;
75645;SDS011;64237;52.438;13.240;2023-05-07T04:51:16;9.90;;;5.30;;
75645;SDS011;64237;52.438;13.240;2023-05-07T04:53:42;12.50;;;5.20;;
75645;SDS011;64237;52.438;13.240;2023-05-07T04:56:08;8.85;;;4.85;;
75645;SDS011;64237;52.438;13.240;2023-05-07T04:58:33;10.25;;;4.90;;
75645;SDS011;64237;52.438;13.240;2023-05-07T05:00:59;12.07;;;4.88;;
75645;SDS011;64237;52.438;13.240;2023-05-07T05:03:25;11.32;;;4.97;;
75645;SDS011;64237;52.438;13.240;2023-05-07T05:05:50;8.98;;;4.65;;
75645;SDS011;64237;52.438;13.240;2023-05-07T05:08:17;12.63;;;4.93;;
75645;SDS011;64237;52.438;13.240;2023-05-07T05:10:42;9.55;;;4.60;;
75645;SDS011;64237;52.438;13.240;2023-05-07T05:13:08;9.30;;;4.55;;
75645;SDS011;64237;52.438;13.240;2023-05-07T05:15:34;9.00;;;4.57;;
75645;SDS011;64237;52.438;13.240;2023-05-07T05:17:59;9.18;;;4.45;;
75645;SDS011;64237;52.438;13.240;2023-05-07T05:20:25;9.52;;;3.95;;
75645;SDS011;64237;52.438;13.240;2023-05-07T05:22:50;8.02;;;4.18;;
75645;SDS011;64237;52.438;13.240;2023-05-07T05:25:16;11.23;;;4.40;;
75645;SDS011;64237;52.438;13.240;2023-05-07T05:27:41;8.85;;;4.10;;
75645;SDS011;64237;52.438;13.240;2023-05-07T05:30:07;8.20;;;3.92;;
75645;SDS011;64237;52.438;13.240;2023-05-07T05:32:32;9.35;;;4.05;;
75645;SDS011;64237;52.438;13.240;2023-05-07T05:34:58;8.52;;;4.03;;
75645;SDS011;64237;52.438;13.240;2023-05-07T05:37:23;8.45;;;4.05;;
75645;SDS011;64237;52.438;13.240;2023-05-07T05:39:48;8.02;;;3.90;;
75645;SDS011;64237;52.438;13.240;2023-05-07T05:42:14;8.45;;;4.10;;
75645;SDS011;64237;52.438;13.240;2023-05-07T05:44:39;10.23;;;4.28;;
75645;SDS011;64237;52.438;13.240;2023-05-07T05:47:04;9.37;;;3.73;;
75645;SDS011;64237;52.438;13.240;2023-05-07T05:49:30;8.57;;;3.72;;
75645;SDS011;64237;52.438;13.240;2023-05-07T05:51:55;8.45;;;3.63;;
75645;SDS011;64237;52.438;13.240;2023-05-07T05:54:21;7.80;;;3.33;;
75645;SDS011;64237;52.438;13.240;2023-05-07T05:56:46;8.68;;;3.60;;
75645;SDS011;64237;52.438;13.240;2023-05-07T05:59:12;6.57;;;3.10;;
75645;SDS011;64237;52.438;13.240;2023-05-07T06:01:37;7.90;;;3.40;;
75645;SDS011;64237;52.438;13.240;2023-05-07T06:04:03;7.95;;;3.15;;
75645;SDS011;64237;52.438;13.240;2023-05-07T06:06:29;7.25;;;3.00;;
75645;SDS011;64237;52.438;13.240;2023-05-07T06:08:56;8.13;;;3.10;;
75645;SDS011;64237;52.438;13.240;2023-05-07T06:11:22;9.73;;;3.00;;
75645;SDS011;64237;52.438;13.240;2023-05-07T06:13:47;8.18;;;3.15;;
75645;SDS011;64237;52.438;13.240;2023-05-07T06:16:13;8.23;;;2.92;;
75645;SDS011;64237;52.438;13.240;2023-05-07T06:18:39;8.23;;;2.88;;
75645;SDS011;64237;52.438;13.240;2023-05-07T06:21:04;6.50;;;3.10;;
75645;SDS011;64237;52.438;13.240;2023-05-07T06:23:30;6.50;;;3.03;;
75645;SDS011;64237;52.438;13.240;2023-05-07T06:25:55;7.70;;;3.38;;
75645;SDS011;64237;52.438;13.240;2023-05-07T06:28:20;6.30;;;2.90;;
75645;SDS011;64237;52.438;13.240;2023-05-07T06:30:46;5.35;;;2.70;;
75645;SDS011;64237;52.438;13.240;2023-05-07T06:33:11;5.95;;;3.05;;
75645;SDS011;64237;52.438;13.240;2023-05-07T06:35:36;6.78;;;3.13;;
75645;SDS011;64237;52.438;13.240;2023-05-07T06:38:02;7.30;;;3.30;;
75645;SDS011;64237;52.438;13.240;2023-05-07T06:40:27;7.53;;;3.45;;
75645;SDS011;64237;52.438;13.240;2023-05-07T06:42:53;8.40;;;2.80;;
75645;SDS011;64237;52.438;13.240;2023-05-07T06:45:19;6.82;;;3.20;;
75645;SDS011;64237;52.438;13.240;2023-05-07T06:47:45;7.45;;;3.00;;
75645;SDS011;64237;52.438;13.240;2023-05-07T06:50:10;7.63;;;2.83;;
75645;SDS011;64237;52.438;13.240;2023-05-07T06:52:36;7.72;;;2.90;;
75645;SDS011;64237;52.438;13.240;2023-05-07T06:55:01;6.68;;;2.90;;
75645;SDS011;64237;52.438;13.240;2023-05-07T06:57:27;7.45;;;3.40;;
75645;SDS011;64237;52.438;13.240;2023-05-07T06:59:52;8.10;;;3.13;;
75645;SDS011;64237;52.438;13.240;2023-05-07T07:02:17;8.85;;;3.75;;
75645;SDS011;64237;52.438;13.240;2023-05-07T07:04:43;7.40;;;3.50;;
75645;SDS011;64237;52.438;13.240;2023-05-07T07:07:09;6.20;;;3.03;;
75645;SDS011;64237;52.438;13.240;2023-05-07T07:09:35;7.63;;;3.35;;
75645;SDS011;64237;52.438;13.240;2023-05-07T07:12:00;8.55;;;3.38;;
75645;SDS011;64237;52.438;13.240;2023-05-07T07:14:25;8.07;;;3.20;;
75645;SDS011;64237;52.438;13.240;2023-05-07T07:16:51;8.18;;;3.25;;
75645;SDS011;64237;52.438;13.240;2023-05-07T07:19:16;7.30;;;3.47;;
75645;SDS011;64237;52.438;13.240;2023-05-07T07:21:42;6.97;;;3.40;;
75645;SDS011;64237;52.438;13.240;2023-05-07T07:24:07;8.20;;;3.60;;
75645;SDS011;64237;52.438;13.240;2023-05-07T07:26:32;7.97;;;3.90;;
75645;SDS011;64237;52.438;13.240;2023-05-07T07:28:58;6.97;;;3.33;;
75645;SDS011;64237;52.438;13.240;2023-05-07T07:31:23;8.57;;;3.20;;
75645;SDS011;64237;52.438;13.240;2023-05-07T07:33:48;7.50;;;3.50;;
75645;SDS011;64237;52.438;13.240;2023-05-07T07:36:15;8.13;;;3.67;;
75645;SDS011;64237;52.438;13.240;2023-05-07T07:38:40;8.52;;;3.67;;
75645;SDS011;64237;52.438;13.240;2023-05-07T07:41:07;8.35;;;3.05;;
75645;SDS011;64237;52.438;13.240;2023-05-07T07:43:33;7.20;;;3.30;;
75645;SDS011;64237;52.438;13.240;2023-05-07T07:45:58;7.55;;;3.08;;
75645;SDS011;64237;52.438;13.240;2023-05-07T07:48:24;7.10;;;2.80;;
75645;SDS011;64237;52.438;13.240;2023-05-07T07:50:49;7.55;;;3.22;;
75645;SDS011;64237;52.438;13.240;2023-05-07T07:53:16;7.47;;;2.97;;
75645;SDS011;64237;52.438;13.240;2023-05-07T07:55:41;6.78;;;2.83;;
75645;SDS011;64237;52.438;13.240;2023-05-07T07:58:07;5.40;;;2.55;;
75645;SDS011;64237;52.438;13.240;2023-05-07T08:00:32;7.63;;;3.15;;
75645;SDS011;64237;52.438;13.240;2023-05-07T08:02:57;7.90;;;2.85;;
75645;SDS011;64237;52.438;13.240;2023-05-07T08:05:23;8.02;;;3.00;;
75645;SDS011;64237;52.438;13.240;2023-05-07T08:07:48;5.78;;;2.40;;
75645;SDS011;64237;52.438;13.240;2023-05-07T08:10:18;5.93;;;2.80;;
75645;SDS011;64237;52.438;13.240;2023-05-07T08:12:47;5.10;;;2.75;;
75645;SDS011;64237;52.438;13.240;2023-05-07T08:15:13;7.05;;;2.47;;
75645;SDS011;64237;52.438;13.240;2023-05-07T08:17:39;5.60;;;2.58;;
75645;SDS011;64237;52.438;13.240;2023-05-07T08:20:05;4.75;;;2.30;;
75645;SDS011;64237;52.438;13.240;2023-05-07T08:22:31;6.22;;;2.55;;
75645;SDS011;64237;52.438;13.240;2023-05-07T08:24:56;4.33;;;2.00;;
75645;SDS011;64237;52.438;13.240;2023-05-07T08:27:21;5.82;;;2.47;;
75645;SDS011;64237;52.438;13.240;2023-05-07T08:29:47;3.85;;;1.85;;
75645;SDS011;64237;52.438;13.240;2023-05-07T08:32:13;4.93;;;2.05;;
75645;SDS011;64237;52.438;13.240;2023-05-07T08:34:39;5.38;;;2.28;;
75645;SDS011;64237;52.438;13.240;2023-05-07T08:37:05;6.63;;;2.47;;
75645;SDS011;64237;52.438;13.240;2023-05-07T08:39:30;5.00;;;2.20;;
75645;SDS011;64237;52.438;13.240;2023-05-07T08:41:55;3.72;;;1.65;;
75645;SDS011;64237;52.438;13.240;2023-05-07T08:44:25;4.85;;;2.08;;
75645;SDS011;64237;52.438;13.240;2023-05-07T08:46:52;6.82;;;2.42;;
75645;SDS011;64237;52.438;13.240;2023-05-07T08:49:20;5.20;;;1.95;;
75645;SDS011;64237;52.438;13.240;2023-05-07T08:51:46;5.00;;;2.22;;
75645;SDS011;64237;52.438;13.240;2023-05-07T08:54:12;5.72;;;2.17;;
75645;SDS011;64237;52.438;13.240;2023-05-07T08:56:41;3.90;;;1.80;;
75645;SDS011;64237;52.438;13.240;2023-05-07T08:59:06;3.30;;;1.70;;
75645;SDS011;64237;52.438;13.240;2023-05-07T09:01:32;4.88;;;1.75;;
75645;SDS011;64237;52.438;13.240;2023-05-07T09:03:57;6.47;;;2.30;;
75645;SDS011;64237;52.438;13.240;2023-05-07T09:06:23;7.03;;;2.10;;
75645;SDS011;64237;52.438;13.240;2023-05-07T09:08:52;4.75;;;1.98;;
75645;SDS011;64237;52.438;13.240;2023-05-07T09:11:23;3.13;;;1.85;;
75645;SDS011;64237;52.438;13.240;2023-05-07T09:13:53;3.63;;;1.67;;
75645;SDS011;64237;52.438;13.240;2023-05-07T09:16:20;5.43;;;1.85;;
75645;SDS011;64237;52.438;13.240;2023-05-07T09:18:52;5.22;;;1.92;;
75645;SDS011;64237;52.438;13.240;2023-05-07T09:21:21;5.45;;;1.83;;
75645;SDS011;64237;52.438;13.240;2023-05-07T09:23:48;3.40;;;1.65;;
75645;SDS011;64237;52.438;13.240;2023-05-07T09:26:15;3.58;;;1.77;;
75645;SDS011;64237;52.438;13.240;2023-05-07T09:28:41;4.30;;;1.55;;
75645;SDS011;64237;52.438;13.240;2023-05-07T09:31:08;5.63;;;1.75;;
75645;SDS011;64237;52.438;13.240;2023-05-07T09:33:34;3.55;;;2.00;;
75645;SDS011;64237;52.438;13.240;2023-05-07T09:36:03;3.05;;;1.60;;
75645;SDS011;64237;52.438;13.240;2023-05-07T09:38:33;6.03;;;1.80;;
75645;SDS011;64237;52.438;13.240;2023-05-07T09:41:05;3.42;;;1.40;;
75645;SDS011;64237;52.438;13.240;2023-05-07T09:43:38;2.15;;;1.27;;
75645;SDS011;64237;52.438;13.240;2023-05-07T09:46:10;2.47;;;1.52;;
75645;SDS011;64237;52.438;13.240;2023-05-07T09:48:37;3.58;;;1.50;;
75645;SDS011;64237;52.438;13.240;2023-05-07T09:51:06;2.83;;;1.33;;
75645;SDS011;64237;52.438;13.240;2023-05-07T09:53:40;6.43;;;1.60;;
75645;SDS011;64237;52.438;13.240;2023-05-07T09:56:13;4.00;;;1.67;;
75645;SDS011;64237;52.438;13.240;2023-05-07T09:58:41;3.65;;;1.50;;
75645;SDS011;64237;52.438;13.240;2023-05-07T10:01:06;4.03;;;1.65;;
75645;SDS011;64237;52.438;13.240;2023-05-07T10:03:32;3.95;;;1.65;;
75645;SDS011;64237;52.438;13.240;2023-05-07T10:06:00;4.00;;;1.90;;
75645;SDS011;64237;52.438;13.240;2023-05-07T10:08:25;3.22;;;1.40;;
75645;SDS011;64237;52.438;13.240;2023-05-07T10:10:52;3.22;;;1.42;;
75645;SDS011;64237;52.438;13.240;2023-05-07T10:13:18;6.63;;;1.60;;
75645;SDS011;64237;52.438;13.240;2023-05-07T10:15:47;3.78;;;1.67;;
75645;SDS011;64237;52.438;13.240;2023-05-07T10:18:15;4.43;;;1.80;;
75645;SDS011;64237;52.438;13.240;2023-05-07T10:20:45;2.65;;;1.40;;
75645;SDS011;64237;52.438;13.240;2023-05-07T10:23:17;4.32;;;1.45;;
75645;SDS011;64237;52.438;13.240;2023-05-07T10:25:48;3.78;;;1.70;;
75645;SDS011;64237;52.438;13.240;2023-05-07T10:28:16;4.72;;;1.70;;
75645;SDS011;64237;52.438;13.240;2023-05-07T10:30:58;4.35;;;1.40;;
75645;SDS011;64237;52.438;13.240;2023-05-07T10:33:33;2.55;;;1.27;;
75645;SDS011;64237;52.438;13.240;2023-05-07T10:36:01;5.05;;;1.33;;
75645;SDS011;64237;52.438;13.240;2023-05-07T10:38:29;3.63;;;1.30;;
75645;SDS011;64237;52.438;13.240;2023-05-07T10:40:54;3.53;;;1.40;;
75645;SDS011;64237;52.438;13.240;2023-05-07T10:43:20;3.97;;;1.42;;
75645;SDS011;64237;52.438;13.240;2023-05-07T10:51:32;1.95;;;1.30;;
75645;SDS011;64237;52.438;13.240;2023-05-07T10:56:53;6.45;;;1.40;;
75645;SDS011;64237;52.438;13.240;2023-05-07T11:01:53;2.88;;;1.35;;
75645;SDS011;64237;52.438;13.240;2023-05-07T11:15:01;3.15;;;1.00;;
75645;SDS011;64237;52.438;13.240;2023-05-07T11:17:30;2.55;;;1.20;;
75645;SDS011;64237;52.438;13.240;2023-05-07T11:20:00;2.60;;;1.20;;
75645;SDS011;64237;52.438;13.240;2023-05-07T11:25:02;1.80;;;1.20;;
75645;SDS011;64237;52.438;13.240;2023-05-07T11:27:29;2.03;;;1.10;;
75645;SDS011;64237;52.438;13.240;2023-05-07T11:29:54;2.35;;;1.15;;
75645;SDS011;64237;52.438;13.240;2023-05-07T11:32:23;3.00;;;1.40;;
75645;SDS011;64237;52.438;13.240;2023-05-07T11:34:53;2.58;;;1.17;;
75645;SDS011;64237;52.438;13.240;2023-05-07T11:37:19;3.83;;;1.00;;
75645;SDS011;64237;52.438;13.240;2023-05-07T11:39:45;3.63;;;1.25;;
75645;SDS011;64237;52.438;13.240;2023-05-07T11:42:30;3.40;;;1.10;;
75645;SDS011;64237;52.438;13.240;2023-05-07T11:45:00;1.83;;;1.10;;
75645;SDS011;64237;52.438;13.240;2023-05-07T11:47:26;3.17;;;1.10;;
75645;SDS011;64237;52.438;13.240;2023-05-07T11:49:55;3.95;;;1.33;;
75645;SDS011;64237;52.438;13.240;2023-05-07T11:52:21;2.60;;;1.20;;
75645;SDS011;64237;52.438;13.240;2023-05-07T11:54:51;2.35;;;1.30;;
75645;SDS011;64237;52.438;13.240;2023-05-07T11:57:17;1.90;;;1.33;;
75645;SDS011;64237;52.438;13.240;2023-05-07T11:59:43;2.03;;;1.23;;
75645;SDS011;64237;52.438;13.240;2023-05-07T12:02:15;3.40;;;1.38;;
75645;SDS011;64237;52.438;13.240;2023-05-07T12:04:44;2.72;;;1.23;;
75645;SDS011;64237;52.438;13.240;2023-05-07T12:07:12;4.82;;;1.20;;
75645;SDS011;64237;52.438;13.240;2023-05-07T12:09:42;3.72;;;1.10;;
75645;SDS011;64237;52.438;13.240;2023-05-07T12:12:08;2.70;;;1.48;;
75645;SDS011;64237;52.438;13.240;2023-05-07T12:14:43;3.13;;;1.50;;
75645;SDS011;64237;52.438;13.240;2023-05-07T12:17:19;2.78;;;1.30;;
75645;SDS011;64237;52.438;13.240;2023-05-07T12:19:45;3.75;;;1.23;;
75645;SDS011;64237;52.438;13.240;2023-05-07T12:22:11;2.80;;;1.25;;
75645;SDS011;64237;52.438;13.240;2023-05-07T12:24:50;1.50;;;1.10;;
75645;SDS011;64237;52.438;13.240;2023-05-07T12:27:22;2.85;;;1.25;;
75645;SDS011;64237;52.438;13.240;2023-05-07T12:29:48;2.58;;;1.20;;
75645;SDS011;64237;52.438;13.240;2023-05-07T12:32:15;2.92;;;1.20;;
75645;SDS011;64237;52.438;13.240;2023-05-07T12:34:41;4.22;;;1.20;;
75645;SDS011;64237;52.438;13.240;2023-05-07T12:37:07;1.58;;;1.02;;
75645;SDS011;64237;52.438;13.240;2023-05-07T12:39:32;4.03;;;1.20;;
75645;SDS011;64237;52.438;13.240;2023-05-07T12:42:01;3.97;;;1.40;;
75645;SDS011;64237;52.438;13.240;2023-05-07T12:44:30;4.75;;;1.77;;
75645;SDS011;64237;52.438;13.240;2023-05-07T12:46:57;2.08;;;1.13;;
75645;SDS011;64237;52.438;13.240;2023-05-07T12:49:23;3.88;;;1.38;;
75645;SDS011;64237;52.438;13.240;2023-05-07T12:51:49;1.80;;;1.13;;
75645;SDS011;64237;52.438;13.240;2023-05-07T12:54:28;1.95;;;1.00;;
75645;SDS011;64237;52.438;13.240;2023-05-07T12:57:04;2.95;;;1.33;;
75645;SDS011;64237;52.438;13.240;2023-05-07T12:59:31;1.50;;;1.00;;
75645;SDS011;64237;52.438;13.240;2023-05-07T13:02:07;5.97;;;1.30;;
75645;SDS011;64237;52.438;13.240;2023-05-07T13:04:33;2.78;;;1.20;;
75645;SDS011;64237;52.438;13.240;2023-05-07T13:06:59;3.67;;;1.17;;
75645;SDS011;64237;52.438;13.240;2023-05-07T13:09:31;3.67;;;1.30;;
75645;SDS011;64237;52.438;13.240;2023-05-07T13:11:56;3.10;;;1.13;;
75645;SDS011;64237;52.438;13.240;2023-05-07T13:14:24;2.38;;;1.20;;
75645;SDS011;64237;52.438;13.240;2023-05-07T13:16:50;1.97;;;1.30;;
75645;SDS011;64237;52.438;13.240;2023-05-07T13:19:15;3.83;;;1.40;;
75645;SDS011;64237;52.438;13.240;2023-05-07T13:21:40;2.47;;;1.27;;
75645;SDS011;64237;52.438;13.240;2023-05-07T13:24:06;2.83;;;1.15;;
75645;SDS011;64237;52.438;13.240;2023-05-07T13:26:32;2.78;;;1.20;;
75645;SDS011;64237;52.438;13.240;2023-05-07T13:29:00;3.20;;;1.00;;
75645;SDS011;64237;52.438;13.240;2023-05-07T13:31:25;3.60;;;1.10;;
75645;SDS011;64237;52.438;13.240;2023-05-07T13:33:51;1.73;;;1.10;;
75645;SDS011;64237;52.438;13.240;2023-05-07T13:36:17;2.28;;;1.20;;
75645;SDS011;64237;52.438;13.240;2023-05-07T13:38:43;3.22;;;1.20;;
75645;SDS011;64237;52.438;13.240;2023-05-07T13:41:08;2.28;;;1.23;;
75645;SDS011;64237;52.438;13.240;2023-05-07T13:43:37;2.33;;;1.10;;
75645;SDS011;64237;52.438;13.240;2023-05-07T13:46:02;1.42;;;1.00;;
75645;SDS011;64237;52.438;13.240;2023-05-07T13:48:27;1.70;;;1.00;;
75645;SDS011;64237;52.438;13.240;2023-05-07T13:50:56;4.38;;;1.30;;
75645;SDS011;64237;52.438;13.240;2023-05-07T13:55:47;4.40;;;1.13;;
75645;SDS011;64237;52.438;13.240;2023-05-07T13:58:12;1.37;;;1.10;;
75645;SDS011;64237;52.438;13.240;2023-05-07T14:00:38;3.90;;;1.42;;
75645;SDS011;64237;52.438;13.240;2023-05-07T14:03:04;3.67;;;1.30;;
75645;SDS011;64237;52.438;13.240;2023-05-07T14:05:30;2.42;;;1.55;;
75645;SDS011;64237;52.438;13.240;2023-05-07T14:07:56;2.83;;;1.10;;
75645;SDS011;64237;52.438;13.240;2023-05-07T14:10:22;3.15;;;1.13;;
75645;SDS011;64237;52.438;13.240;2023-05-07T14:12:48;2.30;;;1.15;;
75645;SDS011;64237;52.438;13.240;2023-05-07T14:15:14;3.03;;;1.15;;
75645;SDS011;64237;52.438;13.240;2023-05-07T14:17:40;2.90;;;1.15;;
75645;SDS011;64237;52.438;13.240;2023-05-07T14:20:06;2.30;;;1.33;;
75645;SDS011;64237;52.438;13.240;2023-05-07T14:22:33;1.80;;;1.27;;
75645;SDS011;64237;52.438;13.240;2023-05-07T14:24:59;2.80;;;1.20;;
75645;SDS011;64237;52.438;13.240;2023-05-07T14:27:24;2.28;;;1.15;;
75645;SDS011;64237;52.438;13.240;2023-05-07T14:29:50;1.77;;;1.10;;
75645;SDS011;64237;52.438;13.240;2023-05-07T14:32:19;2.30;;;1.02;;
75645;SDS011;64237;52.438;13.240;2023-05-07T14:34:45;2.92;;;1.20;;
75645;SDS011;64237;52.438;13.240;2023-05-07T14:37:11;2.65;;;1.70;;
75645;SDS011;64237;52.438;13.240;2023-05-07T14:39:36;3.25;;;1.10;;
75645;SDS011;64237;52.438;13.240;2023-05-07T14:42:02;2.67;;;1.20;;
75645;SDS011;64237;52.438;13.240;2023-05-07T14:44:27;5.25;;;1.27;;
75645;SDS011;64237;52.438;13.240;2023-05-07T14:46:53;2.33;;;1.00;;
75645;SDS011;64237;52.438;13.240;2023-05-07T14:49:18;2.17;;;1.05;;
75645;SDS011;64237;52.438;13.240;2023-05-07T14:51:44;2.75;;;1.20;;
75645;SDS011;64237;52.438;13.240;2023-05-07T14:54:10;2.70;;;1.10;;
75645;SDS011;64237;52.438;13.240;2023-05-07T14:56:36;1.38;;;1.10;;